Decoded Metar for KMBY ( in ) (IATA:) | Meteo·Mobile Aviation Weather
aviador You're here:

KMBY Decoded Metar

in
Report Time2018-12-19 04:55:00
UTC Time2018-12-19 05:08:52
Flight Rules vfr VFR
Wind180° at 06 kt
W.Decomp.*RWY 13: 3.9 kt HW 4.6 kt RCW
RWY 23: 3.9 kt HW 4.6 kt LCW
W.Rank180° ranks 7
Current wind is below 180° avg. (9.1)
Visibility9999 m
Phenomena:N/A
Clouds:N/A
Expected CloudBase > 4,000 ft AGL from Temp-Dew spread
CeilingNone
Temp08°C
Dew Point-2°C (50% RH)
AAT3.6°C
QNH1015 hPa
Raw Report
KMBY 190455Z AUTO 18006KT 10SM CLR 08/M02 A2996 RMK AO2=

Extra information for KMBY:More info

Social comments